Time;durP1;ratioP1;P1;durP2;ratioP2;P2;SDS_P1;SDS_P2;PMS_P1;PMS_P2;Temp;Humidity;BMP_temperature;BMP_pressure;BME280_temperature;BME280_humidity;BME280_pressure;Samples;Min_cycle;Max_cycle;Signal;HPM_P1;HPM_P2
2021/06/12 00:00:30;;;;;;;9.35;2.13;;;41.00;8.10;;;;;;4769694;30;20222;-69
2021/06/12 00:02:57;;;;;;;12.35;2.45;;;40.80;8.50;;;;;;4768504;30;20091;-69
2021/06/12 00:05:25;;;;;;;8.07;2.25;;;40.80;8.60;;;;;;4769415;30;20080;-69
2021/06/12 00:07:52;;;;;;;9.15;2.40;;;40.80;8.70;;;;;;4768258;30;20138;-69
2021/06/12 00:10:31;;;;;;;6.07;2.55;;;40.70;9.80;;;;;;4769603;30;20084;-70
2021/06/12 00:12:58;;;;;;;8.27;1.98;;;40.50;8.40;;;;;;4768409;30;20076;-69
2021/06/12 00:15:26;;;;;;;8.27;2.40;;;40.30;8.30;;;;;;4768275;30;20416;-69
2021/06/12 00:17:52;;;;;;;7.53;2.15;;;40.30;7.90;;;;;;4768315;30;20080;-65
2021/06/12 00:20:27;;;;;;;7.85;2.30;;;40.40;9.00;;;;;;4769565;30;20181;-66
2021/06/12 00:22:55;;;;;;;13.02;2.70;;;40.30;8.10;;;;;;4769416;30;20075;-68
2021/06/12 00:25:27;;;;;;;15.85;2.20;;;40.30;8.60;;;;;;4768965;30;20072;-66
2021/06/12 00:28:03;;;;;;;7.53;1.90;;;40.30;8.60;;;;;;4769205;30;20080;-67
2021/06/12 00:30:30;;;;;;;13.35;2.13;;;40.40;8.40;;;;;;4768980;30;20112;-67
2021/06/12 00:32:58;;;;;;;7.47;2.03;;;40.40;8.60;;;;;;4768754;30;20087;-67
2021/06/12 00:35:25;;;;;;;11.38;1.92;;;40.20;7.90;;;;;;4768777;30;20031;-67
2021/06/12 00:37:52;;;;;;;3.60;1.83;;;40.30;7.90;;;;;;4768832;30;20123;-70
2021/06/12 00:40:20;;;;;;;7.25;2.20;;;40.30;15.80;;;;;;4768477;30;20047;-67
2021/06/12 00:42:47;;;;;;;7.97;2.55;;;40.30;8.30;;;;;;4768670;30;20559;-67
2021/06/12 00:45:18;;;;;;;8.63;2.40;;;40.20;8.40;;;;;;4768673;30;20526;-67
2021/06/12 00:47:50;;;;;;;9.55;1.95;;;40.20;8.20;;;;;;4768751;30;20169;-68
2021/06/12 00:50:17;;;;;;;14.23;2.75;;;40.10;8.10;;;;;;4769104;30;20122;-67
2021/06/12 00:52:58;;;;;;;9.40;2.35;;;40.00;8.60;;;;;;4767823;30;20575;-69
2021/06/12 00:55:28;;;;;;;8.43;2.20;;;40.00;8.30;;;;;;4767987;30;20076;-68
2021/06/12 00:57:57;;;;;;;7.13;1.90;;;39.80;8.60;;;;;;4767395;30;20137;-68
2021/06/12 01:00:24;;;;;;;7.95;1.88;;;39.90;8.40;;;;;;4770943;30;20093;-67
2021/06/12 01:02:51;;;;;;;12.75;2.50;;;39.80;8.40;;;;;;4771160;30;20140;-67
2021/06/12 01:05:20;;;;;;;7.35;2.15;;;39.80;8.70;;;;;;4770968;30;20091;-68
2021/06/12 01:07:47;;;;;;;7.20;2.13;;;39.70;8.60;;;;;;4772426;30;20108;-68
2021/06/12 01:10:16;;;;;;;9.70;1.90;;;39.60;9.10;;;;;;4772197;30;20161;-66
2021/06/12 01:13:07;;;;;;;5.38;2.45;;;39.50;9.10;;;;;;4771379;30;20072;-67
2021/06/12 01:15:57;;;;;;;9.48;2.72;;;39.60;9.20;;;;;;4771666;30;20151;-67
2021/06/12 01:18:29;;;;;;;8.10;2.28;;;39.40;10.00;;;;;;4772152;30;20080;-68
2021/06/12 01:21:07;;;;;;;8.57;2.20;;;39.30;8.70;;;;;;4771552;30;20447;-68
2021/06/12 01:24:11;;;;;;;16.65;2.35;;;39.30;10.10;;;;;;4770237;30;20083;-68
2021/06/12 01:27:19;;;;;;;9.40;2.40;;;39.10;10.60;;;;;;4772709;30;20535;-68
2021/06/12 01:30:04;;;;;;;13.32;2.70;;;39.10;11.00;;;;;;4766786;30;20092;-68
2021/06/12 01:32:33;;;;;;;10.75;2.28;;;39.00;10.20;;;;;;4771325;30;20080;-68
2021/06/12 01:35:06;;;;;;;9.60;2.30;;;38.90;9.40;;;;;;4771539;30;20068;-68
2021/06/12 01:37:36;;;;;;;10.88;2.67;;;38.80;10.40;;;;;;4770230;30;20126;-69
2021/06/12 01:40:05;;;;;;;10.07;2.47;;;38.70;9.90;;;;;;4770360;30;20080;-68
2021/06/12 01:42:35;;;;;;;6.15;2.33;;;38.60;9.20;;;;;;4771673;30;20163;-68
2021/06/12 01:45:03;;;;;;;11.77;2.33;;;38.50;9.20;;;;;;4770321;30;20543;-68
2021/06/12 01:47:31;;;;;;;11.75;2.55;;;38.50;10.60;;;;;;4769842;30;20100;-67
2021/06/12 01:50:00;;;;;;;9.35;2.03;;;38.40;10.40;;;;;;4770505;30;20172;-69
2021/06/12 01:52:28;;;;;;;8.85;2.42;;;38.30;11.40;;;;;;4771343;30;20105;-68
2021/06/12 01:55:01;;;;;;;12.52;2.33;;;38.00;11.40;;;;;;4771562;30;20098;-69
2021/06/12 01:57:28;;;;;;;11.27;2.58;;;37.90;11.30;;;;;;4770208;30;20479;-68
2021/06/12 01:59:57;;;;;;;11.45;2.85;;;37.80;10.40;;;;;;4771447;30;20106;-68
2021/06/12 02:02:34;;;;;;;9.38;2.65;;;37.70;9.90;;;;;;4770136;30;20084;-69
2021/06/12 02:05:01;;;;;;;9.95;2.45;;;37.60;10.30;;;;;;4770829;30;20084;-68
2021/06/12 02:07:31;;;;;;;15.55;2.78;;;37.50;11.10;;;;;;4771157;30;20524;-68
2021/06/12 02:09:59;;;;;;;8.68;2.60;;;37.40;11.40;;;;;;4771148;30;20088;-68
2021/06/12 02:12:28;;;;;;;13.07;2.80;;;37.20;11.70;;;;;;4769068;30;20162;-69
2021/06/12 02:14:59;;;;;;;12.43;2.28;;;37.10;11.10;;;;;;4769164;30;20145;-67
2021/06/12 02:17:30;;;;;;;12.77;2.97;;;37.00;11.20;;;;;;4770628;30;20138;-69
2021/06/12 02:19:56;;;;;;;10.95;2.88;;;36.90;11.40;;;;;;4771127;30;20091;-68
2021/06/12 02:22:23;;;;;;;17.48;2.30;;;36.80;11.70;;;;;;4770943;30;20124;-68
2021/06/12 02:24:50;;;;;;;17.77;2.88;;;36.70;12.20;;;;;;4770724;30;20084;-68
2021/06/12 02:27:21;;;;;;;10.02;2.60;;;36.60;12.90;;;;;;4770825;30;20091;-68
2021/06/12 02:29:51;;;;;;;13.02;3.30;;;36.50;12.50;;;;;;4770726;30;20133;-68
2021/06/12 02:32:19;;;;;;;11.57;2.58;;;36.30;12.60;;;;;;4770779;30;20068;-68
2021/06/12 02:34:46;;;;;;;13.07;2.78;;;36.20;12.40;;;;;;4769271;30;20084;-68
2021/06/12 02:37:13;;;;;;;16.15;2.60;;;36.10;12.10;;;;;;4770341;30;20214;-67
2021/06/12 02:39:39;;;;;;;12.68;2.88;;;36.00;12.40;;;;;;4769534;30;20175;-67
2021/06/12 02:42:07;;;;;;;15.05;2.88;;;35.80;12.30;;;;;;4770310;30;20458;-68
2021/06/12 02:44:36;;;;;;;14.75;3.22;;;35.70;11.90;;;;;;4770502;30;20139;-67
2021/06/12 02:47:11;;;;;;;23.27;3.83;;;35.60;11.60;;;;;;4770530;30;20175;-68
2021/06/12 02:49:39;;;;;;;23.75;4.10;;;35.60;12.00;;;;;;4769961;30;20457;-67
2021/06/12 02:52:15;;;;;;;16.83;3.40;;;35.40;11.80;;;;;;4770091;30;20171;-69
2021/06/12 02:54:43;;;;;;;16.05;2.90;;;35.30;12.20;;;;;;4770276;30;20083;-68
2021/06/12 02:57:10;;;;;;;21.98;3.30;;;35.20;12.40;;;;;;4770184;30;20122;-67
2021/06/12 02:59:38;;;;;;;13.25;3.00;;;35.10;12.60;;;;;;4770482;30;20523;-69
2021/06/12 03:02:07;;;;;;;22.95;3.35;;;35.00;12.80;;;;;;4768795;30;20149;-67
2021/06/12 03:04:36;;;;;;;13.82;3.05;;;34.90;13.50;;;;;;4769799;30;20240;-69
2021/06/12 03:07:04;;;;;;;15.35;3.28;;;34.80;13.10;;;;;;4769388;30;20458;-68
2021/06/12 03:09:31;;;;;;;17.58;3.28;;;34.70;13.20;;;;;;4770002;30;20159;-68
2021/06/12 03:11:58;;;;;;;23.02;3.92;;;34.60;13.30;;;;;;4770148;30;20084;-67
2021/06/12 03:14:28;;;;;;;19.58;4.22;;;34.50;13.50;;;;;;4770101;30;20114;-68
2021/06/12 03:16:55;;;;;;;18.80;4.82;;;34.40;13.90;;;;;;4769684;30;20144;-68
2021/06/12 03:19:23;;;;;;;31.40;5.32;;;34.30;14.30;;;;;;4769116;30;20088;-67
2021/06/12 03:21:50;;;;;;;29.65;4.53;;;34.20;14.50;;;;;;4770092;30;20112;-67
2021/06/12 03:24:17;;;;;;;39.03;4.88;;;34.10;14.80;;;;;;4769142;30;20077;-68
2021/06/12 03:26:44;;;;;;;32.55;5.57;;;34.00;14.90;;;;;;4769732;30;20072;-67
2021/06/12 03:29:11;;;;;;;33.15;5.07;;;33.90;15.10;;;;;;4769836;30;20140;-67
2021/06/12 03:31:38;;;;;;;32.38;5.45;;;33.80;15.20;;;;;;4769716;30;20167;-68
2021/06/12 03:34:05;;;;;;;17.85;4.60;;;33.70;15.40;;;;;;4769752;30;20077;-68
2021/06/12 03:36:32;;;;;;;20.60;4.40;;;33.70;15.60;;;;;;4769720;30;20091;-73
2021/06/12 03:38:59;;;;;;;22.25;4.38;;;33.60;15.20;;;;;;4769091;30;20607;-67
2021/06/12 03:41:26;;;;;;;19.27;4.10;;;33.50;15.70;;;;;;4770397;30;20110;-67
2021/06/12 03:43:52;;;;;;;14.82;3.90;;;33.40;15.10;;;;;;4769583;30;20080;-69
2021/06/12 03:46:20;;;;;;;20.27;4.25;;;33.20;15.20;;;;;;4769428;30;20084;-69
2021/06/12 03:48:49;;;;;;;19.98;4.45;;;33.10;14.80;;;;;;4768125;30;20077;-69
2021/06/12 03:51:18;;;;;;;24.15;5.57;;;33.10;15.00;;;;;;4769498;30;20122;-68
2021/06/12 03:53:46;;;;;;;14.02;4.68;;;33.00;15.30;;;;;;4769191;30;20092;-68
2021/06/12 03:56:15;;;;;;;39.85;7.05;;;32.90;15.00;;;;;;4769253;30;20084;-68
2021/06/12 03:58:44;;;;;;;40.28;8.35;;;32.80;15.70;;;;;;4768269;30;20088;-68
2021/06/12 04:01:15;;;;;;;42.03;7.45;;;32.70;15.70;;;;;;4769580;30;20173;-67
2021/06/12 04:03:43;;;;;;;33.35;8.20;;;32.70;15.50;;;;;;4769101;30;20079;-67
2021/06/12 04:06:11;;;;;;;46.35;9.20;;;32.60;15.50;;;;;;4769551;30;20087;-66
2021/06/12 04:08:38;;;;;;;44.65;8.32;;;32.60;15.70;;;;;;4769637;30;20500;-67
2021/06/12 04:11:06;;;;;;;40.55;10.38;;;32.50;16.10;;;;;;4768937;30;20459;-67
2021/06/12 04:13:32;;;;;;;39.22;9.75;;;32.40;16.00;;;;;;4769301;30;20083;-67
2021/06/12 04:15:59;;;;;;;45.42;11.35;;;32.40;16.20;;;;;;4769651;30;20084;-67
2021/06/12 04:18:25;;;;;;;31.90;10.00;;;32.30;16.40;;;;;;4768563;30;20080;-67
2021/06/12 04:20:52;;;;;;;46.60;10.68;;;32.20;16.40;;;;;;4768420;30;20103;-68
2021/06/12 04:23:19;;;;;;;49.97;11.32;;;32.10;16.50;;;;;;4769445;30;20106;-67
2021/06/12 04:25:45;;;;;;;47.58;11.15;;;32.00;16.60;;;;;;4769343;30;20477;-68
2021/06/12 04:28:12;;;;;;;51.03;10.90;;;32.00;17.20;;;;;;4769131;30;20116;-67
2021/06/12 04:30:38;;;;;;;52.25;10.43;;;32.00;17.10;;;;;;4769272;30;20107;-69
2021/06/12 04:33:05;;;;;;;55.45;12.05;;;31.80;17.00;;;;;;4768109;30;20087;-67
2021/06/12 04:35:32;;;;;;;46.03;12.18;;;31.80;16.90;;;;;;4773662;30;20087;-67
2021/06/12 04:37:59;;;;;;;61.47;12.70;;;31.70;16.90;;;;;;4775115;30;20177;-66
2021/06/12 04:40:34;;;;;;;51.00;13.50;;;31.60;16.70;;;;;;4774997;30;20160;-66
2021/06/12 04:43:01;;;;;;;52.58;13.65;;;31.50;16.60;;;;;;4774778;30;20087;-67
2021/06/12 04:45:28;;;;;;;56.17;13.73;;;31.50;17.10;;;;;;4774810;30;20084;-67
2021/06/12 04:47:55;;;;;;;54.38;12.63;;;31.40;17.30;;;;;;4774959;30;20084;-67
2021/06/12 04:50:22;;;;;;;57.83;13.18;;;31.40;17.20;;;;;;4773677;30;20424;-67
2021/06/12 04:52:48;;;;;;;70.63;13.75;;;31.40;17.40;;;;;;4775072;30;20083;-67
2021/06/12 04:55:15;;;;;;;62.70;12.77;;;31.30;17.40;;;;;;4775210;30;20133;-68
2021/06/12 04:57:42;;;;;;;55.80;11.88;;;31.30;17.10;;;;;;4775011;30;20084;-67
2021/06/12 05:00:11;;;;;;;54.25;12.45;;;31.30;16.90;;;;;;4775149;30;20575;-68
2021/06/12 05:02:41;;;;;;;92.32;22.05;;;31.30;17.30;;;;;;4774961;30;20561;-68
2021/06/12 05:05:09;;;;;;;87.90;29.45;;;31.30;17.10;;;;;;4775183;30;20151;-67
2021/06/12 05:07:36;;;;;;;84.22;30.25;;;31.40;16.70;;;;;;4773857;30;20080;-67
2021/06/12 05:10:08;;;;;;;70.60;26.08;;;31.40;16.40;;;;;;4775119;30;20146;-67
2021/06/12 05:12:35;;;;;;;85.30;27.98;;;31.40;16.30;;;;;;4773684;30;20084;-67
2021/06/12 05:15:02;;;;;;;80.50;27.58;;;31.40;16.80;;;;;;4774791;30;20084;-67
2021/06/12 05:17:29;;;;;;;74.10;25.83;;;31.30;16.50;;;;;;4773757;30;20077;-67
2021/06/12 05:19:56;;;;;;;66.00;20.85;;;31.20;16.40;;;;;;4774563;30;20095;-67
2021/06/12 05:22:25;;;;;;;65.95;18.80;;;31.20;16.30;;;;;;4773495;30;20115;-67
2021/06/12 05:24:53;;;;;;;75.00;18.52;;;31.10;16.40;;;;;;4773230;30;20080;-66
2021/06/12 05:27:20;;;;;;;82.40;18.10;;;31.00;17.20;;;;;;4773204;30;20535;-66
2021/06/12 05:29:46;;;;;;;59.05;18.83;;;31.00;17.20;;;;;;4774861;30;20086;-67
2021/06/12 05:32:16;;;;;;;66.40;19.48;;;30.90;16.60;;;;;;4774477;30;20183;-67
2021/06/12 05:34:43;;;;;;;74.10;18.65;;;30.90;17.40;;;;;;4773168;30;20120;-67
2021/06/12 05:37:11;;;;;;;70.00;17.02;;;30.90;17.90;;;;;;4774053;30;20120;-67
2021/06/12 05:39:37;;;;;;;89.38;17.52;;;30.70;17.10;;;;;;4773452;30;20173;-65
2021/06/12 05:42:05;;;;;;;84.28;18.52;;;30.70;17.30;;;;;;4774364;30;20104;-66
2021/06/12 05:44:31;;;;;;;91.43;17.88;;;30.60;17.70;;;;;;4774484;30;20101;-69
2021/06/12 05:46:58;;;;;;;68.43;17.58;;;30.60;17.50;;;;;;4771483;30;20081;-66
2021/06/12 05:49:24;;;;;;;61.15;13.27;;;30.50;17.90;;;;;;4771893;30;20079;-67
2021/06/12 05:51:51;;;;;;;65.82;12.68;;;30.40;18.40;;;;;;4770029;30;20077;-68
2021/06/12 05:54:17;;;;;;;59.67;11.38;;;30.40;18.50;;;;;;4770505;30;20120;-66
2021/06/12 05:56:44;;;;;;;136.10;15.05;;;30.40;18.40;;;;;;4771433;30;20079;-67
2021/06/12 05:59:10;;;;;;;64.57;11.65;;;30.30;18.70;;;;;;4771050;30;20102;-66
2021/06/12 06:01:37;;;;;;;44.03;8.55;;;30.20;18.40;;;;;;4770079;30;20100;-68
2021/06/12 06:04:04;;;;;;;27.58;7.32;;;30.20;18.20;;;;;;4769891;30;20077;-67
2021/06/12 06:06:31;;;;;;;22.95;7.28;;;30.20;17.50;;;;;;4771376;30;20566;-66
2021/06/12 06:08:57;;;;;;;26.73;8.30;;;30.20;17.40;;;;;;4770879;30;20080;-66
2021/06/12 06:11:24;;;;;;;24.92;7.03;;;30.30;17.50;;;;;;4771077;30;20085;-65
2021/06/12 06:13:50;;;;;;;28.48;7.82;;;30.30;17.70;;;;;;4771209;30;20116;-66
2021/06/12 06:16:17;;;;;;;32.42;6.97;;;30.30;18.10;;;;;;4769875;30;20080;-66
2021/06/12 06:18:44;;;;;;;36.75;7.10;;;30.30;18.50;;;;;;4771288;30;20084;-66
2021/06/12 06:21:12;;;;;;;31.73;7.07;;;30.20;18.80;;;;;;4770824;30;20431;-66
2021/06/12 06:23:38;;;;;;;31.70;7.30;;;30.10;19.00;;;;;;4770712;30;20076;-66
2021/06/12 06:26:05;;;;;;;26.52;6.22;;;30.00;19.00;;;;;;4769748;30;20087;-66
2021/06/12 06:28:32;;;;;;;25.40;7.13;;;29.90;18.60;;;;;;4769481;30;20115;-65
2021/06/12 06:30:58;;;;;;;25.65;6.03;;;29.90;18.70;;;;;;4770902;30;20115;-66
2021/06/12 06:33:25;;;;;;;28.60;6.78;;;29.80;18.80;;;;;;4768546;30;20172;-67
2021/06/12 06:35:52;;;;;;;20.92;5.93;;;29.70;19.10;;;;;;4770927;30;20080;-66
2021/06/12 06:38:20;;;;;;;24.48;5.43;;;29.70;19.10;;;;;;4770741;30;20120;-66
2021/06/12 06:40:47;;;;;;;26.17;5.93;;;29.70;19.00;;;;;;4771546;30;20195;-66
2021/06/12 06:43:14;;;;;;;29.30;6.28;;;29.60;18.90;;;;;;4772375;30;20080;-66
2021/06/12 06:45:42;;;;;;;29.65;6.28;;;29.60;19.70;;;;;;4772324;30;20091;-66
2021/06/12 06:48:11;;;;;;;22.17;5.68;;;29.50;19.70;;;;;;4774636;30;20155;-66
2021/06/12 06:50:39;;;;;;;20.42;6.40;;;29.50;19.60;;;;;;4769638;30;20073;-66
2021/06/12 06:53:05;;;;;;;28.10;6.07;;;29.40;19.70;;;;;;4772989;30;20654;-67
2021/06/12 06:55:32;;;;;;;21.17;6.35;;;29.40;19.50;;;;;;4772711;30;20443;-67
2021/06/12 06:57:59;;;;;;;28.65;5.72;;;29.30;19.60;;;;;;4769467;30;20072;-67
2021/06/12 07:00:26;;;;;;;21.98;5.10;;;29.30;19.70;;;;;;4770015;30;20089;-66
2021/06/12 07:02:54;;;;;;;27.55;5.00;;;29.20;19.70;;;;;;4770187;30;20435;-67
2021/06/12 07:05:20;;;;;;;30.10;5.85;;;29.20;19.80;;;;;;4769656;30;20080;-66
2021/06/12 07:07:47;;;;;;;33.47;6.35;;;29.20;20.00;;;;;;4770125;30;20143;-66
2021/06/12 07:10:14;;;;;;;29.15;6.78;;;29.20;20.50;;;;;;4770155;30;20087;-66
2021/06/12 07:12:41;;;;;;;30.10;6.05;;;29.20;21.30;;;;;;4768731;30;20192;-67
2021/06/12 07:15:11;;;;;;;34.42;6.03;;;29.20;21.70;;;;;;4770192;30;20080;-66
2021/06/12 07:17:38;;;;;;;33.15;5.15;;;29.10;22.30;;;;;;4770211;30;20104;-67
2021/06/12 07:20:08;;;;;;;34.05;6.03;;;29.00;22.40;;;;;;4770237;30;20088;-66
2021/06/12 07:22:35;;;;;;;25.55;4.40;;;29.00;22.70;;;;;;4769525;30;20100;-65
2021/06/12 07:25:02;;;;;;;29.98;4.22;;;28.80;22.90;;;;;;4769600;30;20076;-66
2021/06/12 07:27:29;;;;;;;27.27;4.55;;;28.80;23.20;;;;;;4769721;30;20088;-66
2021/06/12 07:29:55;;;;;;;31.90;4.43;;;28.70;23.40;;;;;;4769619;30;20419;-67
2021/06/12 07:32:22;;;;;;;24.67;3.83;;;28.70;23.50;;;;;;4769670;30;20172;-67
2021/06/12 07:34:48;;;;;;;28.58;4.15;;;28.60;23.80;;;;;;4769898;30;20068;-66
2021/06/12 07:37:15;;;;;;;29.90;4.22;;;28.60;23.60;;;;;;4769461;30;20112;-67
2021/06/12 07:39:41;;;;;;;28.95;4.47;;;28.50;23.80;;;;;;4769658;30;20085;-66
2021/06/12 07:42:08;;;;;;;19.63;4.50;;;28.40;23.70;;;;;;4753277;30;20112;-66
2021/06/12 07:44:35;;;;;;;38.58;4.68;;;28.40;23.50;;;;;;4768375;30;20147;-67
2021/06/12 07:47:01;;;;;;;21.35;3.70;;;28.30;23.90;;;;;;4768534;30;20080;-66
2021/06/12 07:49:28;;;;;;;37.88;4.78;;;28.30;24.00;;;;;;4769828;30;20133;-67
2021/06/12 07:51:54;;;;;;;36.92;4.85;;;28.20;24.30;;;;;;4768106;30;20107;-67
2021/06/12 07:54:21;;;;;;;33.17;4.80;;;28.20;24.70;;;;;;4768341;30;20547;-66
2021/06/12 07:56:47;;;;;;;33.90;5.47;;;28.10;24.60;;;;;;4769382;30;20095;-66
2021/06/12 07:59:14;;;;;;;29.98;4.78;;;28.10;24.60;;;;;;4769213;30;20084;-67
2021/06/12 08:01:41;;;;;;;22.50;5.10;;;28.10;24.40;;;;;;4769294;30;20118;-67
2021/06/12 08:04:07;;;;;;;31.83;5.43;;;28.00;24.70;;;;;;4769304;30;20514;-67
2021/06/12 08:06:34;;;;;;;34.60;4.10;;;28.00;24.90;;;;;;4769437;30;20535;-66
2021/06/12 08:09:00;;;;;;;21.85;4.10;;;27.90;25.00;;;;;;4768482;30;20163;-66
2021/06/12 08:11:27;;;;;;;29.35;4.63;;;27.90;25.20;;;;;;4768976;30;20140;-66
2021/06/12 08:13:53;;;;;;;30.73;5.25;;;27.80;25.20;;;;;;4769184;30;20081;-66
2021/06/12 08:16:20;;;;;;;20.95;4.07;;;27.70;25.40;;;;;;4768918;30;20111;-66
2021/06/12 08:18:46;;;;;;;22.02;4.68;;;27.70;25.60;;;;;;4769051;30;20149;-66
2021/06/12 08:21:13;;;;;;;21.45;4.45;;;27.70;25.70;;;;;;4769102;30;20108;-66
2021/06/12 08:23:40;;;;;;;28.95;4.63;;;27.60;25.80;;;;;;4768702;30;20080;-65
2021/06/12 08:26:06;;;;;;;20.98;4.63;;;27.60;25.80;;;;;;4768752;30;20087;-67
2021/06/12 08:28:33;;;;;;;31.52;4.60;;;27.60;25.90;;;;;;4767654;30;20144;-66
2021/06/12 08:31:00;;;;;;;24.40;4.57;;;27.50;26.00;;;;;;4768927;30;20080;-67
2021/06/12 08:33:26;;;;;;;19.70;4.20;;;27.50;26.00;;;;;;4769045;30;20076;-65
2021/06/12 08:35:53;;;;;;;22.33;4.35;;;27.50;25.80;;;;;;4769087;30;20084;-66
2021/06/12 08:38:20;;;;;;;21.33;4.25;;;27.50;25.40;;;;;;4768766;30;20195;-66
2021/06/12 08:40:49;;;;;;;17.83;4.22;;;27.40;25.30;;;;;;4768680;30;20100;-66
2021/06/12 08:43:27;;;;;;;20.10;3.90;;;27.40;25.60;;;;;;4768836;30;20172;-65
2021/06/12 08:46:04;;;;;;;18.58;4.10;;;27.40;25.40;;;;;;4768754;30;20080;-67
2021/06/12 08:48:31;;;;;;;23.92;4.70;;;27.30;25.30;;;;;;4767177;30;20088;-66
2021/06/12 08:50:58;;;;;;;15.80;3.70;;;27.30;25.20;;;;;;4768627;30;20115;-66
2021/06/12 08:53:24;;;;;;;21.15;3.35;;;27.40;25.20;;;;;;4768850;30;20068;-67
2021/06/12 08:55:51;;;;;;;16.95;3.40;;;27.40;24.50;;;;;;4781324;30;20415;-66
2021/06/12 08:58:18;;;;;;;11.98;3.03;;;27.40;23.60;;;;;;4768849;30;20079;-65
2021/06/12 09:00:45;;;;;;;9.95;2.47;;;27.50;23.10;;;;;;4768662;30;20096;-65
2021/06/12 09:03:17;;;;;;;15.55;3.35;;;27.50;22.70;;;;;;4768722;30;20084;-66
2021/06/12 09:05:48;;;;;;;18.85;3.53;;;27.50;22.70;;;;;;4767694;30;20081;-67
2021/06/12 09:08:17;;;;;;;14.45;2.63;;;27.60;22.70;;;;;;4767436;30;20111;-67
2021/06/12 09:10:46;;;;;;;14.25;2.80;;;27.60;22.60;;;;;;4768385;30;20080;-67
2021/06/12 09:13:13;;;;;;;20.83;2.78;;;27.60;22.70;;;;;;4767503;30;20095;-67
2021/06/12 09:15:40;;;;;;;8.70;2.30;;;27.60;22.30;;;;;;4767581;30;20084;-66
2021/06/12 09:18:07;;;;;;;8.57;2.25;;;27.60;22.00;;;;;;4768662;30;20084;-65
2021/06/12 09:20:33;;;;;;;9.82;2.22;;;27.60;21.60;;;;;;4768617;30;20186;-66
2021/06/12 09:23:17;;;;;;;10.30;1.98;;;27.60;21.50;;;;;;4771496;30;20080;-66
2021/06/12 09:25:45;;;;;;;5.18;1.95;;;27.70;21.00;;;;;;4771192;30;20547;-65
2021/06/12 09:28:13;;;;;;;12.88;2.30;;;27.70;20.80;;;;;;4771697;30;20103;-66
2021/06/12 09:30:40;;;;;;;10.70;1.80;;;27.80;20.70;;;;;;4771815;30;20080;-66
2021/06/12 09:33:06;;;;;;;16.33;2.40;;;27.90;20.50;;;;;;4771795;30;20083;-66
2021/06/12 09:35:36;;;;;;;11.68;2.42;;;27.90;20.50;;;;;;4772152;30;20190;-66
2021/06/12 09:38:26;;;;;;;9.30;1.77;;;27.90;20.50;;;;;;4770346;30;20212;-66
2021/06/12 09:40:54;;;;;;;8.98;2.03;;;28.00;20.50;;;;;;4769614;30;20199;-66
2021/06/12 09:43:31;;;;;;;9.60;2.28;;;28.00;20.50;;;;;;4771453;30;20484;-65
2021/06/12 09:45:59;;;;;;;17.10;2.63;;;27.90;20.50;;;;;;4770917;30;20554;-66
2021/06/12 09:48:28;;;;;;;10.48;2.05;;;27.90;20.60;;;;;;4770818;30;20524;-66
2021/06/12 09:51:15;;;;;;;7.40;2.28;;;27.90;20.70;;;;;;4770930;30;20080;-66
2021/06/12 09:53:54;;;;;;;7.47;1.95;;;27.80;20.70;;;;;;4771760;30;20443;-67
2021/06/12 09:56:21;;;;;;;6.97;1.95;;;27.70;21.10;;;;;;4770948;30;20561;-66
2021/06/12 09:58:48;;;;;;;6.78;1.92;;;27.70;21.40;;;;;;4771262;30;20543;-67
2021/06/12 10:01:18;;;;;;;12.63;2.30;;;27.60;21.50;;;;;;4771118;30;20131;-68
2021/06/12 10:03:45;;;;;;;11.32;2.30;;;27.60;21.50;;;;;;4771172;30;20080;-65
2021/06/12 10:06:13;;;;;;;9.88;2.03;;;27.60;21.70;;;;;;4770301;30;20137;-66
2021/06/12 10:08:42;;;;;;;9.07;2.38;;;27.50;21.80;;;;;;4771221;30;20080;-66
2021/06/12 10:11:08;;;;;;;11.07;2.55;;;27.50;21.80;;;;;;4769914;30;20084;-67
2021/06/12 10:13:35;;;;;;;8.02;2.17;;;27.50;21.80;;;;;;4771033;30;20072;-65
2021/06/12 10:16:04;;;;;;;8.88;2.00;;;27.50;21.30;;;;;;4770917;30;20155;-65
2021/06/12 10:18:33;;;;;;;8.32;2.53;;;27.50;20.70;;;;;;4769820;30;20570;-66
2021/06/12 10:21:00;;;;;;;11.02;2.47;;;27.60;20.70;;;;;;4771016;30;20567;-66
2021/06/12 10:23:27;;;;;;;15.55;2.15;;;27.60;20.70;;;;;;4770785;30;20148;-65
2021/06/12 10:25:53;;;;;;;8.13;2.67;;;27.60;20.80;;;;;;4769623;30;20084;-65
2021/06/12 10:28:21;;;;;;;7.97;2.35;;;27.50;20.80;;;;;;4770748;30;20080;-65
2021/06/12 10:30:49;;;;;;;8.30;2.42;;;27.60;20.70;;;;;;4770635;30;20083;-66
2021/06/12 10:33:20;;;;;;;9.45;2.53;;;27.60;20.70;;;;;;4770340;30;20087;-66
2021/06/12 10:35:47;;;;;;;14.40;2.30;;;27.60;20.60;;;;;;4769743;30;20083;-66
2021/06/12 10:38:17;;;;;;;9.40;2.33;;;27.60;20.50;;;;;;4770536;30;20124;-65
2021/06/12 10:40:53;;;;;;;7.25;1.98;;;27.70;20.40;;;;;;4768405;30;20469;-65
2021/06/12 10:43:19;;;;;;;6.93;1.88;;;27.70;20.20;;;;;;4770465;30;20079;-66
2021/06/12 10:46:07;;;;;;;8.18;2.10;;;27.70;20.00;;;;;;4769439;30;20080;-65
2021/06/12 10:48:41;;;;;;;7.93;2.50;;;27.80;19.90;;;;;;4770331;30;20084;-65
2021/06/12 10:51:12;;;;;;;9.30;2.13;;;27.70;19.60;;;;;;4770237;30;20109;-65
2021/06/12 10:53:42;;;;;;;6.50;1.73;;;27.80;19.20;;;;;;4769070;30;20080;-66
2021/06/12 10:56:11;;;;;;;7.80;1.73;;;27.80;19.00;;;;;;4770440;30;20427;-66
2021/06/12 10:58:41;;;;;;;6.50;2.03;;;27.80;18.70;;;;;;4769169;30;20072;-66
2021/06/12 11:01:08;;;;;;;6.47;2.03;;;27.80;18.60;;;;;;4767758;30;20104;-66
2021/06/12 11:06:59;;;;;;;7.97;2.60;;;27.80;18.60;;;;;;4770648;30;20136;-65
2021/06/12 11:09:36;;;;;;;9.20;1.88;;;27.80;18.60;;;;;;4769542;30;20084;-65
2021/06/12 11:12:22;;;;;;;5.53;1.77;;;27.70;18.70;;;;;;4769338;30;20166;-65
2021/06/12 11:15:09;;;;;;;11.73;2.00;;;27.70;18.70;;;;;;4760391;30;20099;-66
2021/06/12 11:17:37;;;;;;;;;;;27.70;18.80;;;;;;4770269;30;20092;-65
2021/06/12 11:20:06;;;;;;;5.97;2.00;;;27.50;18.90;;;;;;4770002;30;19962;-65
2021/06/12 11:22:40;;;;;;;9.93;2.55;;;27.50;19.00;;;;;;4769889;30;20107;-67
2021/06/12 11:25:09;;;;;;;10.23;2.50;;;27.50;19.10;;;;;;4769867;30;20084;-65
2021/06/12 11:27:47;;;;;;;7.43;1.90;;;27.40;19.10;;;;;;4769983;30;20084;-65
2021/06/12 11:30:19;;;;;;;7.78;1.80;;;27.40;19.30;;;;;;4769565;30;20076;-65
2021/06/12 11:32:57;;;;;;;5.78;1.65;;;27.30;19.40;;;;;;4769797;30;20176;-66
2021/06/12 11:35:39;;;;;;;10.63;2.15;;;27.30;19.60;;;;;;4768853;30;20084;-66
2021/06/12 11:38:09;;;;;;;7.85;2.20;;;27.20;20.00;;;;;;4781417;30;20563;-66
2021/06/12 11:40:36;;;;;;;6.80;2.13;;;27.20;20.40;;;;;;4769669;30;20081;-67
2021/06/12 11:43:03;;;;;;;14.05;2.30;;;27.10;20.60;;;;;;4769557;30;20531;-66
2021/06/12 11:45:32;;;;;;;13.40;2.40;;;27.10;21.00;;;;;;4768788;30;20072;-66
2021/06/12 11:48:15;;;;;;;10.95;1.90;;;27.00;21.50;;;;;;4768099;30;20436;-66
2021/06/12 11:50:42;;;;;;;10.77;2.60;;;26.90;20.90;;;;;;4768953;30;20313;-66
2021/06/12 11:53:17;;;;;;;6.97;1.90;;;26.80;21.20;;;;;;4769292;30;20214;-66
2021/06/12 11:55:44;;;;;;;15.90;2.30;;;26.70;21.50;;;;;;4766905;30;20079;-66
2021/06/12 11:58:12;;;;;;;9.60;3.05;;;26.70;21.70;;;;;;4769245;30;20088;-66
2021/06/12 12:00:47;;;;;;;10.77;2.17;;;26.70;22.00;;;;;;4769160;30;20110;-65
2021/06/12 12:03:18;;;;;;;9.80;2.33;;;26.50;22.10;;;;;;4767955;30;20604;-66
2021/06/12 12:05:47;;;;;;;9.63;2.40;;;26.50;22.40;;;;;;4769181;30;20091;-65
2021/06/12 12:08:18;;;;;;;9.07;2.88;;;26.40;22.10;;;;;;4769102;30;20084;-65
2021/06/12 12:10:55;;;;;;;12.23;3.03;;;26.30;22.20;;;;;;4766975;30;20076;-65
2021/06/12 12:13:36;;;;;;;9.27;2.28;;;26.20;22.30;;;;;;4768252;30;20571;-64
2021/06/12 12:16:05;;;;;;;10.23;2.30;;;26.20;22.60;;;;;;4768102;30;20088;-65
2021/06/12 12:18:48;;;;;;;10.65;2.70;;;26.10;23.10;;;;;;4767692;30;20143;-66
2021/06/12 12:21:15;;;;;;;10.73;3.10;;;26.00;24.40;;;;;;4766567;30;20111;-65
2021/06/12 12:23:42;;;;;;;13.02;3.38;;;25.90;24.90;;;;;;4768231;30;20092;-65
2021/06/12 12:26:13;;;;;;;20.13;3.13;;;25.80;27.10;;;;;;4767845;30;20106;-65
2021/06/12 12:29:00;;;;;;;10.43;2.83;;;25.80;25.10;;;;;;4769016;30;20076;-65
2021/06/12 12:31:28;;;;;;;13.95;2.75;;;25.40;35.60;;;;;;4768120;30;20088;-65
2021/06/12 12:33:56;;;;;;;12.57;2.72;;;25.60;25.40;;;;;;4768832;30;20088;-64
2021/06/12 12:36:24;;;;;;;9.32;2.67;;;25.60;26.40;;;;;;4769152;30;20160;-64
2021/06/12 12:39:17;;;;;;;15.00;3.03;;;25.60;29.00;;;;;;4767407;30;20116;-65
2021/06/12 12:41:59;;;;;;;13.85;2.70;;;25.50;25.70;;;;;;4767563;30;20223;-65
2021/06/12 12:44:26;;;;;;;22.83;2.60;;;25.30;25.80;;;;;;4768675;30;20416;-65
2021/06/12 12:46:54;;;;;;;8.48;2.75;;;25.30;25.80;;;;;;4768791;30;20567;-64
2021/06/12 12:49:20;;;;;;;17.52;3.10;;;25.30;25.60;;;;;;4767767;30;20179;-64
2021/06/12 12:51:52;;;;;;;12.35;3.00;;;25.30;25.30;;;;;;4768597;30;20080;-66
2021/06/12 12:54:19;;;;;;;12.32;3.00;;;25.30;26.50;;;;;;4768838;30;20076;-65